createdAt,value
2022-11-27T00:00:36.168Z,2.40
2022-11-27T00:03:24.180Z,2.40
2022-11-27T00:06:16.066Z,2.40
2022-11-27T00:09:08.142Z,2.40
2022-11-27T00:11:55.840Z,2.40
2022-11-27T00:14:43.965Z,2.40
2022-11-27T00:17:31.435Z,2.30
2022-11-27T00:20:19.216Z,2.30
2022-11-27T00:23:06.752Z,2.30
2022-11-27T00:25:56.165Z,2.30
2022-11-27T00:28:44.068Z,2.30
2022-11-27T00:31:34.440Z,2.30
2022-11-27T00:34:22.464Z,2.30
2022-11-27T00:37:10.019Z,2.30
2022-11-27T00:39:57.747Z,2.30
2022-11-27T00:42:47.403Z,2.20
2022-11-27T00:45:35.324Z,2.20
2022-11-27T00:48:23.358Z,2.10
2022-11-27T00:51:12.967Z,2.20
2022-11-27T00:54:01.867Z,2.10
2022-11-27T00:56:49.586Z,2.10
2022-11-27T00:59:38.578Z,2.10
2022-11-27T01:02:26.312Z,2.10
2022-11-27T01:05:14.267Z,2.10
2022-11-27T01:08:02.076Z,2.10
2022-11-27T01:10:54.733Z,2.10
2022-11-27T01:13:42.567Z,2.10
2022-11-27T01:16:33.665Z,2.00
2022-11-27T01:19:21.541Z,2.00
2022-11-27T01:22:09.430Z,2.00
2022-11-27T01:24:57.298Z,2.00
2022-11-27T01:27:44.836Z,2.00
2022-11-27T01:30:32.745Z,1.90
2022-11-27T01:33:22.321Z,1.90
2022-11-27T01:36:13.009Z,1.90
2022-11-27T01:39:00.978Z,1.90
2022-11-27T01:41:49.395Z,1.90
2022-11-27T01:44:53.741Z,1.90
2022-11-27T01:47:40.898Z,1.90
2022-11-27T01:50:34.511Z,1.80
2022-11-27T01:53:21.880Z,1.80
2022-11-27T01:56:09.652Z,1.70
2022-11-27T01:58:58.690Z,1.70
2022-11-27T02:01:45.696Z,1.70
2022-11-27T02:04:32.980Z,1.70
2022-11-27T02:07:22.045Z,1.70
2022-11-27T02:10:09.517Z,1.70
2022-11-27T02:13:02.259Z,1.60
2022-11-27T02:15:58.981Z,1.60
2022-11-27T02:18:55.798Z,1.60
2022-11-27T02:21:48.161Z,1.60
2022-11-27T02:24:49.814Z,1.60
2022-11-27T02:28:05.001Z,1.60
2022-11-27T02:31:00.912Z,1.60
2022-11-27T02:33:53.854Z,1.60
2022-11-27T02:36:48.759Z,1.60
2022-11-27T02:39:42.644Z,1.60
2022-11-27T02:42:32.762Z,1.60
2022-11-27T02:45:24.631Z,1.50
2022-11-27T02:48:15.018Z,1.50
2022-11-27T02:51:03.773Z,1.50
2022-11-27T02:53:54.192Z,1.50
2022-11-27T02:56:43.661Z,1.50
2022-11-27T02:59:33.880Z,1.50
2022-11-27T03:02:27.426Z,1.40
2022-11-27T03:05:20.174Z,1.40
2022-11-27T03:08:11.432Z,1.40
2022-11-27T03:11:05.452Z,1.40
2022-11-27T03:13:55.200Z,1.40
2022-11-27T03:16:52.074Z,1.40
2022-11-27T03:19:44.141Z,1.30
2022-11-27T03:22:32.571Z,1.30
2022-11-27T03:25:19.502Z,1.30
2022-11-27T03:28:09.773Z,1.30
2022-11-27T03:30:57.129Z,1.30
2022-11-27T03:33:44.006Z,1.30
2022-11-27T03:36:31.061Z,1.30
2022-11-27T03:39:20.531Z,1.30
2022-11-27T03:42:16.181Z,1.20
2022-11-27T03:45:09.402Z,1.30
2022-11-27T03:48:07.914Z,1.30
2022-11-27T03:51:04.155Z,1.30
2022-11-27T03:53:58.840Z,1.20
2022-11-27T03:56:53.902Z,1.20
2022-11-27T03:59:44.410Z,1.20
2022-11-27T04:02:40.032Z,1.10
2022-11-27T04:05:27.202Z,1.20
2022-11-27T04:08:14.324Z,1.20
2022-11-27T04:11:01.593Z,1.20
2022-11-27T04:13:52.218Z,1.10
2022-11-27T04:16:39.358Z,1.10
2022-11-27T04:19:26.576Z,1.10
2022-11-27T04:22:13.804Z,1.10
2022-11-27T04:25:00.621Z,1.10
2022-11-27T04:27:47.594Z,1.10
2022-11-27T04:30:36.188Z,1.10
2022-11-27T04:33:24.311Z,1.10
2022-11-27T04:36:11.320Z,1.10
2022-11-27T04:38:58.262Z,1.10
2022-11-27T04:41:45.883Z,1.00
2022-11-27T04:44:32.920Z,1.00
2022-11-27T04:47:21.636Z,1.00
2022-11-27T04:50:12.636Z,1.00
2022-11-27T04:53:00.017Z,1.00
2022-11-27T04:55:47.092Z,1.00
2022-11-27T04:58:34.243Z,1.00
2022-11-27T05:01:21.527Z,1.00
2022-11-27T05:04:09.794Z,0.90
2022-11-27T05:06:56.890Z,0.90
2022-11-27T05:09:44.167Z,0.90
2022-11-27T05:12:31.300Z,0.90
2022-11-27T05:15:18.531Z,0.90
2022-11-27T05:18:05.722Z,0.80
2022-11-27T05:20:59.285Z,0.80
2022-11-27T05:23:46.644Z,0.80
2022-11-27T05:26:34.460Z,0.80
2022-11-27T05:29:22.200Z,0.80
2022-11-27T05:32:09.395Z,0.80
2022-11-27T05:34:56.450Z,0.70
2022-11-27T05:37:44.711Z,0.80
2022-11-27T05:40:31.882Z,0.80
2022-11-27T05:43:18.891Z,0.70
2022-11-27T05:46:08.123Z,0.70
2022-11-27T05:48:55.144Z,0.70
2022-11-27T05:51:49.139Z,0.70
2022-11-27T05:54:40.187Z,0.70
2022-11-27T05:57:28.286Z,0.70
2022-11-27T06:00:16.259Z,0.70
2022-11-27T06:03:03.391Z,0.70
2022-11-27T06:05:50.460Z,0.60
2022-11-27T06:08:38.374Z,0.60
2022-11-27T06:11:26.584Z,0.60
2022-11-27T06:14:13.510Z,0.60
2022-11-27T06:17:00.731Z,0.60
2022-11-27T06:19:47.533Z,0.60
2022-11-27T06:22:34.729Z,0.50
2022-11-27T06:25:21.700Z,0.50
2022-11-27T06:28:10.081Z,0.50
2022-11-27T06:30:57.250Z,0.50
2022-11-27T06:33:44.240Z,0.50
2022-11-27T06:36:33.441Z,0.40
2022-11-27T06:39:20.571Z,0.40
2022-11-27T06:42:07.580Z,0.40
2022-11-27T06:44:56.079Z,0.40
2022-11-27T06:47:43.180Z,0.40
2022-11-27T06:50:30.201Z,0.40
2022-11-27T06:53:17.898Z,0.40
2022-11-27T06:56:04.970Z,0.30
2022-11-27T06:58:53.663Z,0.30
2022-11-27T07:01:43.059Z,0.30
2022-11-27T07:04:30.290Z,0.30
2022-11-27T07:07:17.591Z,0.30
2022-11-27T07:10:05.020Z,0.30
2022-11-27T07:12:52.290Z,0.30
2022-11-27T07:15:39.291Z,0.40
2022-11-27T07:18:27.423Z,0.40
2022-11-27T07:21:14.439Z,0.40
2022-11-27T07:24:02.472Z,0.40
2022-11-27T07:26:49.590Z,0.40
2022-11-27T07:29:36.905Z,0.50
2022-11-27T07:32:24.170Z,0.50
2022-11-27T07:35:12.407Z,0.50
2022-11-27T07:37:59.231Z,0.50
2022-11-27T07:40:46.481Z,0.60
2022-11-27T07:43:35.560Z,0.60
2022-11-27T07:46:25.510Z,0.60
2022-11-27T07:49:12.456Z,0.60
2022-11-27T07:52:00.874Z,0.60
2022-11-27T07:54:47.822Z,0.60
2022-11-27T07:57:35.023Z,0.70
2022-11-27T08:00:22.996Z,0.70
2022-11-27T08:03:11.856Z,0.70
2022-11-27T08:05:59.132Z,0.80
2022-11-27T08:08:47.858Z,0.80
2022-11-27T08:11:35.328Z,0.90
2022-11-27T08:14:22.886Z,0.90
2022-11-27T08:17:13.500Z,0.90
2022-11-27T08:20:00.838Z,0.90
2022-11-27T08:22:48.401Z,1.00
2022-11-27T08:25:38.601Z,1.10
2022-11-27T08:28:25.717Z,1.10
2022-11-27T08:31:15.170Z,1.10
2022-11-27T08:34:02.188Z,1.20
2022-11-27T08:36:49.378Z,1.20
2022-11-27T08:39:36.869Z,1.30
2022-11-27T08:42:25.463Z,1.40
2022-11-27T08:45:12.674Z,1.50
2022-11-27T08:48:00.043Z,1.50
2022-11-27T08:50:47.931Z,1.60
2022-11-27T08:53:36.141Z,1.60
2022-11-27T08:56:25.897Z,1.70
2022-11-27T08:59:14.291Z,1.90
2022-11-27T09:02:01.251Z,2.00
2022-11-27T09:04:48.462Z,2.30
2022-11-27T09:07:35.704Z,2.50
2022-11-27T09:10:23.651Z,2.60
2022-11-27T09:13:10.692Z,2.80
2022-11-27T09:16:00.214Z,3.00
2022-11-27T09:18:48.852Z,3.20
2022-11-27T09:21:35.908Z,3.20
2022-11-27T09:24:23.082Z,3.30
2022-11-27T09:27:10.241Z,3.40
2022-11-27T09:29:57.382Z,3.40
2022-11-27T09:32:45.683Z,3.40
2022-11-27T09:35:33.021Z,3.30
2022-11-27T09:38:19.931Z,3.30
2022-11-27T09:41:29.420Z,3.30
2022-11-27T09:44:26.988Z,3.40
2022-11-27T09:47:22.820Z,3.50
2022-11-27T09:50:18.439Z,3.50
2022-11-27T09:53:12.165Z,3.60
2022-11-27T09:56:03.489Z,3.70
2022-11-27T09:58:57.601Z,3.80
2022-11-27T10:01:49.389Z,3.80
2022-11-27T10:04:57.930Z,3.90
2022-11-27T10:08:11.288Z,4.00
2022-11-27T10:11:11.543Z,4.20
2022-11-27T10:14:12.093Z,4.30
2022-11-27T10:17:03.978Z,4.40
2022-11-27T10:19:59.302Z,4.60
2022-11-27T10:22:57.015Z,4.80
2022-11-27T10:25:50.738Z,5.00
2022-11-27T10:28:42.730Z,5.00
2022-11-27T10:31:37.894Z,5.10
2022-11-27T10:34:32.561Z,5.10
2022-11-27T10:37:24.932Z,5.20
2022-11-27T10:40:23.890Z,5.20
2022-11-27T10:43:17.092Z,5.30
2022-11-27T10:46:11.309Z,5.30
2022-11-27T10:48:59.494Z,5.30
2022-11-27T10:51:46.816Z,5.30
2022-11-27T10:54:39.305Z,5.40
2022-11-27T10:57:46.321Z,5.50
2022-11-27T11:00:33.715Z,5.60
2022-11-27T11:03:21.025Z,5.70
2022-11-27T11:06:21.516Z,5.90
2022-11-27T11:09:16.445Z,6.10
2022-11-27T11:12:19.134Z,6.40
2022-11-27T11:15:14.825Z,6.60
2022-11-27T11:18:01.564Z,6.80
2022-11-27T11:20:51.918Z,7.00
2022-11-27T11:23:42.485Z,7.20
2022-11-27T11:26:32.246Z,7.50
2022-11-27T11:29:30.111Z,7.60
2022-11-27T11:32:25.184Z,7.90
2022-11-27T11:35:27.883Z,8.00
2022-11-27T11:38:18.904Z,8.10
2022-11-27T11:41:09.854Z,8.20
2022-11-27T11:44:02.169Z,8.30
2022-11-27T11:46:55.025Z,8.30
2022-11-27T11:49:44.225Z,8.40
2022-11-27T11:52:45.304Z,8.40
2022-11-27T11:55:40.107Z,8.40
2022-11-27T11:58:40.287Z,8.20
2022-11-27T12:01:45.311Z,8.10
2022-11-27T12:04:51.067Z,8.30
2022-11-27T12:07:55.859Z,8.40
2022-11-27T12:10:54.157Z,8.40
2022-11-27T12:13:56.771Z,8.30
2022-11-27T12:17:01.718Z,8.10
2022-11-27T12:20:08.388Z,8.00
2022-11-27T12:23:17.960Z,7.90
2022-11-27T12:26:12.242Z,7.60
2022-11-27T12:29:18.647Z,7.30
2022-11-27T12:32:20.690Z,7.00
2022-11-27T12:35:28.549Z,6.80
2022-11-27T12:38:30.520Z,6.50
2022-11-27T12:41:34.073Z,6.30
2022-11-27T12:44:29.991Z,6.30
2022-11-27T12:47:23.101Z,6.30
2022-11-27T12:50:17.678Z,6.30
2022-11-27T12:53:16.843Z,6.20
2022-11-27T12:56:13.921Z,6.40
2022-11-27T12:59:17.815Z,6.40
2022-11-27T13:02:23.975Z,6.40
2022-11-27T13:05:14.715Z,6.20
2022-11-27T13:08:07.515Z,6.10
2022-11-27T13:10:59.506Z,6.00
2022-11-27T13:13:50.167Z,5.90
2022-11-27T13:16:41.371Z,5.80
2022-11-27T13:19:33.584Z,5.70
2022-11-27T13:22:27.825Z,5.60
2022-11-27T13:25:16.508Z,5.50
2022-11-27T13:28:07.186Z,5.50
2022-11-27T13:30:59.747Z,5.40
2022-11-27T13:33:47.506Z,5.40
2022-11-27T13:36:40.248Z,5.30
2022-11-27T13:39:31.329Z,5.20
2022-11-27T13:42:22.749Z,5.20
2022-11-27T13:45:23.131Z,5.10
2022-11-27T13:48:30.379Z,5.10
2022-11-27T13:51:27.351Z,5.10
2022-11-27T13:54:16.150Z,5.00
2022-11-27T13:57:13.309Z,5.10
2022-11-27T14:00:02.453Z,5.10
2022-11-27T14:03:02.610Z,5.20
2022-11-27T14:05:49.959Z,5.20
2022-11-27T14:08:38.763Z,5.20
2022-11-27T14:11:40.244Z,5.20
2022-11-27T14:14:29.685Z,5.20
2022-11-27T14:17:28.385Z,5.10
2022-11-27T14:20:29.041Z,5.10
2022-11-27T14:23:27.521Z,5.10
2022-11-27T14:26:23.320Z,5.00
2022-11-27T14:29:13.444Z,5.00
2022-11-27T14:32:02.847Z,5.00
2022-11-27T14:34:50.250Z,4.90
2022-11-27T14:37:39.004Z,4.90
2022-11-27T14:40:29.498Z,4.90
2022-11-27T14:43:18.665Z,4.90
2022-11-27T14:46:08.411Z,4.80
2022-11-27T14:48:57.278Z,4.70
2022-11-27T14:51:44.716Z,4.70
2022-11-27T14:54:38.343Z,4.70
2022-11-27T14:57:27.728Z,4.80
2022-11-27T15:00:19.320Z,4.70
2022-11-27T15:03:11.367Z,4.70
2022-11-27T15:06:01.331Z,4.70
2022-11-27T15:09:09.087Z,4.70
2022-11-27T15:12:04.351Z,4.60
2022-11-27T15:14:58.222Z,4.60
2022-11-27T15:17:48.509Z,4.60
2022-11-27T15:20:39.681Z,4.50
2022-11-27T15:23:29.949Z,4.50
2022-11-27T15:26:32.217Z,4.50
2022-11-27T15:29:36.300Z,4.40
2022-11-27T15:32:25.753Z,4.50
2022-11-27T15:35:16.130Z,4.50
2022-11-27T15:38:11.912Z,4.40
2022-11-27T15:41:01.761Z,4.40
2022-11-27T15:43:49.055Z,4.40
2022-11-27T15:46:37.539Z,4.40
2022-11-27T15:49:25.046Z,4.40
2022-11-27T15:52:12.002Z,4.30
2022-11-27T15:54:59.781Z,4.30
2022-11-27T15:57:47.424Z,4.30
2022-11-27T16:00:34.450Z,4.30
2022-11-27T16:03:23.102Z,4.30
2022-11-27T16:06:11.402Z,4.30
2022-11-27T16:08:59.811Z,4.20
2022-11-27T16:11:47.218Z,4.20
2022-11-27T16:14:34.237Z,4.20
2022-11-27T16:17:21.573Z,4.10
2022-11-27T16:20:10.964Z,4.10
2022-11-27T16:22:58.110Z,4.10
2022-11-27T16:25:45.449Z,4.00
2022-11-27T16:28:32.825Z,4.10
2022-11-27T16:31:21.613Z,4.10
2022-11-27T16:34:08.800Z,4.00
2022-11-27T16:37:00.937Z,4.00
2022-11-27T16:39:47.809Z,4.00
2022-11-27T16:42:35.080Z,3.90
2022-11-27T16:45:23.065Z,3.90
2022-11-27T16:48:10.578Z,3.80
2022-11-27T16:51:04.126Z,3.80
2022-11-27T16:53:53.504Z,3.80
2022-11-27T16:56:40.735Z,3.70
2022-11-27T16:59:28.647Z,3.60
2022-11-27T17:02:15.865Z,3.60
2022-11-27T17:05:03.669Z,3.60
2022-11-27T17:07:51.001Z,3.60
2022-11-27T17:10:39.767Z,3.60
2022-11-27T17:13:26.856Z,3.50
2022-11-27T17:16:15.009Z,3.50
2022-11-27T17:19:03.831Z,3.50
2022-11-27T17:21:52.288Z,3.40
2022-11-27T17:24:40.810Z,3.40
2022-11-27T17:27:31.039Z,3.40
2022-11-27T17:30:19.011Z,3.40
2022-11-27T17:33:07.392Z,3.40
2022-11-27T17:35:54.932Z,3.40
2022-11-27T17:38:43.344Z,3.40
2022-11-27T17:41:30.983Z,3.30
2022-11-27T17:44:19.832Z,3.20
2022-11-27T17:47:06.788Z,3.20
2022-11-27T17:49:54.213Z,3.20
2022-11-27T17:52:41.261Z,3.20
2022-11-27T17:55:28.889Z,3.20
2022-11-27T17:58:16.100Z,3.20
2022-11-27T18:01:06.261Z,3.30
2022-11-27T18:03:56.810Z,3.30
2022-11-27T18:06:44.581Z,3.30
2022-11-27T18:09:31.932Z,3.40
2022-11-27T18:12:18.833Z,3.40
2022-11-27T18:15:09.757Z,3.30
2022-11-27T18:17:58.546Z,3.20
2022-11-27T18:20:47.005Z,3.20
2022-11-27T18:23:34.784Z,3.20
2022-11-27T18:26:39.238Z,3.20
2022-11-27T18:29:30.044Z,3.30
2022-11-27T18:32:19.079Z,3.30
2022-11-27T18:35:09.226Z,3.20
2022-11-27T18:37:57.284Z,3.20
2022-11-27T18:40:46.153Z,3.20
2022-11-27T18:43:33.845Z,3.20
2022-11-27T18:46:23.060Z,3.20
2022-11-27T18:49:10.823Z,3.20
2022-11-27T18:52:00.285Z,3.20
2022-11-27T18:54:48.614Z,3.20
2022-11-27T18:57:36.046Z,3.20
2022-11-27T19:00:23.706Z,3.30
2022-11-27T19:03:11.651Z,3.30
2022-11-27T19:06:02.227Z,3.30
2022-11-27T19:08:51.488Z,3.30
2022-11-27T19:11:40.633Z,3.30
2022-11-27T19:14:28.796Z,3.30
2022-11-27T19:17:18.857Z,3.30
2022-11-27T19:20:08.260Z,3.30
2022-11-27T19:22:56.870Z,3.40
2022-11-27T19:25:46.900Z,3.40
2022-11-27T19:28:34.598Z,3.40
2022-11-27T19:31:23.398Z,3.40
2022-11-27T19:34:14.104Z,3.40
2022-11-27T19:37:01.316Z,3.40
2022-11-27T19:39:50.651Z,3.40
2022-11-27T19:42:39.400Z,3.40
2022-11-27T19:45:26.928Z,3.40
2022-11-27T19:48:16.554Z,3.40
2022-11-27T19:51:07.257Z,3.40
2022-11-27T19:53:55.141Z,3.40
2022-11-27T19:56:44.551Z,3.40
2022-11-27T19:59:33.796Z,3.50
2022-11-27T20:02:21.217Z,3.50
2022-11-27T20:05:09.472Z,3.50
2022-11-27T20:07:57.942Z,3.50
2022-11-27T20:10:51.088Z,3.50
2022-11-27T20:13:38.602Z,3.50
2022-11-27T20:16:27.808Z,3.50
2022-11-27T20:19:15.081Z,3.50
2022-11-27T20:22:02.141Z,3.50
2022-11-27T20:25:17.169Z,3.50
2022-11-27T20:27:57.374Z,3.50
2022-11-27T20:30:44.773Z,3.50
2022-11-27T20:33:34.630Z,3.50
2022-11-27T20:36:23.130Z,3.50
2022-11-27T20:39:19.249Z,3.50
2022-11-27T20:42:11.191Z,3.50
2022-11-27T20:44:58.839Z,3.50
2022-11-27T20:47:46.073Z,3.50
2022-11-27T20:50:34.982Z,3.60
2022-11-27T20:53:23.729Z,3.60
2022-11-27T20:56:13.231Z,3.60
2022-11-27T20:59:01.352Z,3.60
2022-11-27T21:01:48.285Z,3.60
2022-11-27T21:04:36.031Z,3.50
2022-11-27T21:07:25.496Z,3.50
2022-11-27T21:10:15.811Z,3.50
2022-11-27T21:13:02.874Z,3.50
2022-11-27T21:15:50.352Z,3.50
2022-11-27T21:18:38.930Z,3.50
2022-11-27T21:21:26.322Z,3.50
2022-11-27T21:24:15.871Z,3.50
2022-11-27T21:27:02.826Z,3.50
2022-11-27T21:29:50.295Z,3.50
2022-11-27T21:32:37.391Z,3.40
2022-11-27T21:35:28.727Z,3.50
2022-11-27T21:38:19.753Z,3.50
2022-11-27T21:41:08.495Z,3.50
2022-11-27T21:43:58.284Z,3.50
2022-11-27T21:46:47.934Z,3.50
2022-11-27T21:49:36.346Z,3.50
2022-11-27T21:52:24.735Z,3.50
2022-11-27T21:55:12.472Z,3.50
2022-11-27T21:58:00.978Z,3.50
2022-11-27T22:00:51.253Z,3.50
2022-11-27T22:03:42.261Z,3.50
2022-11-27T22:06:32.576Z,3.50
2022-11-27T22:09:20.117Z,3.50
2022-11-27T22:12:07.305Z,3.60
2022-11-27T22:14:56.075Z,3.60
2022-11-27T22:17:43.047Z,3.60
2022-11-27T22:20:30.417Z,3.60
2022-11-27T22:23:17.759Z,3.60
2022-11-27T22:26:05.914Z,3.50
2022-11-27T22:28:53.147Z,3.50
2022-11-27T22:31:42.208Z,3.50
2022-11-27T22:34:29.220Z,3.40
2022-11-27T22:37:16.566Z,3.40
2022-11-27T22:40:03.606Z,3.40
2022-11-27T22:42:50.723Z,3.30
2022-11-27T22:45:39.923Z,3.30
2022-11-27T22:48:29.046Z,3.30
2022-11-27T22:51:16.300Z,3.30
2022-11-27T22:54:05.092Z,3.30
2022-11-27T22:56:53.066Z,3.30
2022-11-27T22:59:40.781Z,3.20
2022-11-27T23:02:28.101Z,3.20
2022-11-27T23:05:16.940Z,3.20
2022-11-27T23:08:03.901Z,3.20
2022-11-27T23:10:52.640Z,3.20
2022-11-27T23:13:42.770Z,3.20
2022-11-27T23:16:32.370Z,3.20
2022-11-27T23:19:19.756Z,3.20
2022-11-27T23:22:08.323Z,3.20
2022-11-27T23:24:55.628Z,3.20
2022-11-27T23:27:44.022Z,3.20
2022-11-27T23:30:31.188Z,3.30
2022-11-27T23:33:18.130Z,3.30
2022-11-27T23:36:06.886Z,3.40
2022-11-27T23:38:55.600Z,3.40
2022-11-27T23:41:43.625Z,3.40
2022-11-27T23:44:30.649Z,3.40
2022-11-27T23:47:18.100Z,3.30
2022-11-27T23:50:05.421Z,3.30
2022-11-27T23:52:55.310Z,3.30
2022-11-27T23:55:43.772Z,3.40
2022-11-27T23:58:31.130Z,3.40
